createdAt,value
2019-04-06T00:00:51.790Z,458.50
2019-04-06T00:01:51.863Z,465.89
2019-04-06T00:02:51.796Z,456.68
2019-04-06T00:03:52.125Z,454.71
2019-04-06T00:04:51.749Z,454.33
2019-04-06T00:05:51.739Z,459.70
2019-04-06T00:06:51.765Z,475.68
2019-04-06T00:07:51.697Z,455.94
2019-04-06T00:08:51.752Z,459.79
2019-04-06T00:09:51.750Z,466.22
2019-04-06T00:10:51.670Z,461.38
2019-04-06T00:11:51.693Z,460.40
2019-04-06T00:12:51.735Z,457.18
2019-04-06T00:13:51.632Z,458.28
2019-04-06T00:14:51.779Z,455.08
2019-04-06T00:15:51.654Z,453.08
2019-04-06T00:16:51.613Z,451.23
2019-04-06T00:17:51.587Z,460.51
2019-04-06T00:18:51.597Z,457.85
2019-04-06T00:19:51.639Z,458.36
2019-04-06T00:20:51.578Z,453.84
2019-04-06T00:21:51.563Z,449.95
2019-04-06T00:22:51.557Z,452.65
2019-04-06T00:23:51.551Z,456.20
2019-04-06T00:24:55.839Z,463.46
2019-04-06T00:25:51.524Z,460.63
2019-04-06T00:26:51.620Z,462.87
2019-04-06T00:27:51.509Z,460.03
2019-04-06T00:28:51.499Z,456.82
2019-04-06T00:29:51.479Z,458.67
2019-04-06T00:30:51.481Z,461.00
2019-04-06T00:31:51.486Z,462.27
2019-04-06T00:32:51.483Z,464.94
2019-04-06T00:33:51.439Z,449.89
2019-04-06T00:34:51.450Z,456.28
2019-04-06T00:35:51.411Z,450.82
2019-04-06T00:36:51.410Z,456.16
2019-04-06T00:37:51.422Z,455.13
2019-04-06T00:38:51.454Z,462.24
2019-04-06T00:39:51.374Z,454.29
2019-04-06T00:40:51.364Z,459.24
2019-04-06T00:41:51.345Z,459.14
2019-04-06T00:42:51.393Z,456.84
2019-04-06T00:43:51.308Z,453.05
2019-04-06T00:44:51.338Z,454.53
2019-04-06T00:45:51.299Z,452.01
2019-04-06T00:46:51.300Z,467.51
2019-04-06T00:47:51.305Z,455.64
2019-04-06T00:48:51.299Z,452.68
2019-04-06T00:49:51.268Z,450.13
2019-04-06T00:50:51.261Z,454.49
2019-04-06T00:51:51.233Z,455.87
2019-04-06T00:52:51.233Z,449.95
2019-04-06T00:53:51.260Z,463.24
2019-04-06T00:54:51.205Z,461.35
2019-04-06T00:55:55.844Z,471.53
2019-04-06T00:56:52.181Z,470.53
2019-04-06T00:57:51.173Z,457.17
2019-04-06T00:58:51.161Z,460.73
2019-04-06T00:59:51.137Z,474.41
2019-04-06T01:00:51.122Z,460.64
2019-04-06T01:01:51.120Z,457.46
2019-04-06T01:02:51.116Z,463.09
2019-04-06T01:03:51.141Z,460.15
2019-04-06T01:04:51.107Z,463.44
2019-04-06T01:05:51.091Z,464.56
2019-04-06T01:06:51.094Z,462.19
2019-04-06T01:07:51.061Z,457.00
2019-04-06T01:08:51.040Z,464.03
2019-04-06T01:09:51.046Z,458.26
2019-04-06T01:10:51.531Z,462.07
2019-04-06T01:11:51.046Z,468.94
2019-04-06T01:12:51.009Z,462.25
2019-04-06T01:13:51.043Z,465.28
2019-04-06T01:14:50.999Z,458.11
2019-04-06T01:15:51.086Z,471.29
2019-04-06T01:16:50.985Z,462.03
2019-04-06T01:17:50.965Z,469.21
2019-04-06T01:18:50.942Z,464.51
2019-04-06T01:19:50.965Z,463.87
2019-04-06T01:20:50.910Z,460.05
2019-04-06T01:21:50.970Z,461.93
2019-04-06T01:22:50.915Z,464.72
2019-04-06T01:23:50.918Z,464.49
2019-04-06T01:24:50.890Z,462.30
2019-04-06T01:25:50.865Z,466.99
2019-04-06T01:26:50.858Z,461.90
2019-04-06T01:27:50.873Z,466.93
2019-04-06T01:28:50.864Z,460.33
2019-04-06T01:29:50.875Z,462.31
2019-04-06T01:30:50.841Z,466.91
2019-04-06T01:31:50.851Z,462.07
2019-04-06T01:32:50.923Z,475.11
2019-04-06T01:33:50.811Z,463.54
2019-04-06T01:34:51.532Z,485.34
2019-04-06T01:35:50.785Z,464.43
2019-04-06T01:36:50.934Z,464.92
2019-04-06T01:37:50.828Z,471.43
2019-04-06T01:38:50.784Z,457.90
2019-04-06T01:39:50.711Z,464.71
2019-04-06T01:40:50.694Z,468.33
2019-04-06T01:41:50.781Z,463.89
2019-04-06T01:42:50.669Z,463.57
2019-04-06T01:43:50.754Z,471.35
2019-04-06T01:44:50.725Z,468.15
2019-04-06T01:45:50.663Z,464.48
2019-04-06T01:46:50.653Z,459.85
2019-04-06T01:47:50.641Z,463.57
2019-04-06T01:48:50.631Z,464.76
2019-04-06T01:49:50.617Z,469.88
2019-04-06T01:50:50.575Z,467.91
2019-04-06T01:51:50.582Z,469.82
2019-04-06T01:52:50.590Z,464.18
2019-04-06T01:53:50.586Z,462.26
2019-04-06T01:54:50.572Z,461.73
2019-04-06T01:55:50.550Z,464.06
2019-04-06T01:56:50.547Z,465.33
2019-04-06T01:57:50.538Z,475.04
2019-04-06T01:58:50.535Z,471.22
2019-04-06T01:59:50.518Z,465.30
2019-04-06T02:00:50.532Z,469.59
2019-04-06T02:01:50.470Z,459.88
2019-04-06T02:02:50.456Z,465.97
2019-04-06T02:03:50.454Z,467.70
2019-04-06T02:04:50.454Z,467.23
2019-04-06T02:05:50.433Z,467.63
2019-04-06T02:06:50.416Z,465.36
2019-04-06T02:07:50.409Z,466.77
2019-04-06T02:08:50.403Z,472.46
2019-04-06T02:09:50.423Z,463.88
2019-04-06T02:10:50.387Z,466.19
2019-04-06T02:11:50.372Z,469.29
2019-04-06T02:12:50.364Z,472.46
2019-04-06T02:13:50.339Z,465.12
2019-04-06T02:14:50.452Z,466.86
2019-04-06T02:15:50.394Z,463.13
2019-04-06T02:16:50.332Z,472.71
2019-04-06T02:17:50.344Z,464.79
2019-04-06T02:18:50.297Z,460.24
2019-04-06T02:19:50.282Z,465.86
2019-04-06T02:20:50.312Z,469.25
2019-04-06T02:21:50.324Z,460.04
2019-04-06T02:22:50.285Z,469.94
2019-04-06T02:23:50.263Z,460.58
2019-04-06T02:24:50.265Z,461.98
2019-04-06T02:25:50.242Z,460.14
2019-04-06T02:26:50.205Z,466.47
2019-04-06T02:27:50.302Z,468.53
2019-04-06T02:28:50.199Z,461.33
2019-04-06T02:29:50.168Z,465.12
2019-04-06T02:30:50.179Z,461.43
2019-04-06T02:31:50.198Z,471.71
2019-04-06T02:32:50.155Z,464.09
2019-04-06T02:33:50.336Z,461.24
2019-04-06T02:34:50.163Z,464.73
2019-04-06T02:35:50.147Z,464.27
2019-04-06T02:36:50.209Z,469.53
2019-04-06T02:37:50.087Z,472.83
2019-04-06T02:38:50.102Z,467.89
2019-04-06T02:39:50.093Z,463.54
2019-04-06T02:40:50.096Z,471.55
2019-04-06T02:41:50.111Z,466.79
2019-04-06T02:42:50.031Z,478.54
2019-04-06T02:43:50.075Z,472.98
2019-04-06T02:44:50.023Z,464.80
2019-04-06T02:45:50.026Z,467.45
2019-04-06T02:46:50.020Z,470.29
2019-04-06T02:47:50.027Z,467.18
2019-04-06T02:48:49.967Z,472.24
2019-04-06T02:49:49.988Z,466.55
2019-04-06T02:50:49.981Z,466.06
2019-04-06T02:51:49.963Z,474.64
2019-04-06T02:52:50.009Z,467.00
2019-04-06T02:53:49.969Z,472.31
2019-04-06T02:54:49.953Z,464.37
2019-04-06T02:55:49.912Z,465.67
2019-04-06T02:56:49.892Z,468.98
2019-04-06T02:57:49.899Z,467.94
2019-04-06T02:58:50.073Z,473.64
2019-04-06T02:59:49.929Z,466.25
2019-04-06T03:00:49.845Z,466.00
2019-04-06T03:01:49.831Z,464.10
2019-04-06T03:02:49.843Z,474.95
2019-04-06T03:03:49.838Z,466.57
2019-04-06T03:04:49.861Z,484.82
2019-04-06T03:05:49.828Z,471.86
2019-04-06T03:06:49.844Z,478.08
2019-04-06T03:07:49.818Z,468.58
2019-04-06T03:08:49.751Z,470.46
2019-04-06T03:09:49.780Z,474.11
2019-04-06T03:10:49.747Z,477.07
2019-04-06T03:11:49.746Z,466.62
2019-04-06T03:12:49.724Z,475.63
2019-04-06T03:13:49.751Z,467.70
2019-04-06T03:14:49.720Z,478.77
2019-04-06T03:15:49.710Z,471.90
2019-04-06T03:16:49.723Z,467.56
2019-04-06T03:17:49.665Z,473.89
2019-04-06T03:18:49.678Z,467.41
2019-04-06T03:19:49.675Z,468.13
2019-04-06T03:20:49.672Z,467.11
2019-04-06T03:21:49.813Z,469.43
2019-04-06T03:22:49.645Z,481.04
2019-04-06T03:23:52.083Z,466.83
2019-04-06T03:24:49.604Z,465.87
2019-04-06T03:25:49.579Z,470.25
2019-04-06T03:27:00.616Z,469.64
2019-04-06T03:27:50.556Z,471.89
2019-04-06T03:28:49.602Z,474.47
2019-04-06T03:29:57.608Z,477.28
2019-04-06T03:30:50.558Z,471.95
2019-04-06T03:31:49.510Z,470.32
2019-04-06T03:32:49.507Z,471.59
2019-04-06T03:33:49.818Z,475.32
2019-04-06T03:34:49.479Z,470.49
2019-04-06T03:35:51.054Z,469.94
2019-04-06T03:36:49.517Z,472.29
2019-04-06T03:37:49.482Z,478.25
2019-04-06T03:38:49.440Z,470.70
2019-04-06T03:39:49.456Z,484.56
2019-04-06T03:40:49.481Z,469.98
2019-04-06T03:41:49.479Z,480.50
2019-04-06T03:42:49.421Z,465.87
2019-04-06T03:43:49.410Z,482.27
2019-04-06T03:44:49.474Z,483.58
2019-04-06T03:45:49.379Z,472.68
2019-04-06T03:46:49.371Z,468.71
2019-04-06T03:47:49.401Z,473.35
2019-04-06T03:48:49.342Z,475.59
2019-04-06T03:49:49.341Z,470.00
2019-04-06T03:50:49.310Z,473.42
2019-04-06T03:51:49.344Z,472.76
2019-04-06T03:52:49.392Z,469.80
2019-04-06T03:53:50.061Z,479.78
2019-04-06T03:54:49.306Z,477.90
2019-04-06T03:55:49.244Z,470.80
2019-04-06T03:56:49.266Z,477.65
2019-04-06T03:57:49.246Z,473.90
2019-04-06T03:58:51.946Z,481.75
2019-04-06T03:59:49.300Z,474.59
2019-04-06T04:00:49.224Z,468.98
2019-04-06T04:01:49.242Z,479.25
2019-04-06T04:02:49.231Z,475.65
2019-04-06T04:03:49.180Z,478.23
2019-04-06T04:04:49.156Z,484.51
2019-04-06T04:05:49.259Z,486.59
2019-04-06T04:06:49.247Z,467.72
2019-04-06T04:07:49.192Z,473.20
2019-04-06T04:08:49.112Z,470.49
2019-04-06T04:09:49.107Z,475.30
2019-04-06T04:10:49.111Z,474.86
2019-04-06T04:11:49.133Z,471.25
2019-04-06T04:12:49.083Z,480.72
2019-04-06T04:13:49.075Z,473.21
2019-04-06T04:14:49.060Z,477.13
2019-04-06T04:15:49.085Z,470.85
2019-04-06T04:16:49.027Z,475.79
2019-04-06T04:17:49.116Z,474.28
2019-04-06T04:18:49.118Z,479.00
2019-04-06T04:19:48.981Z,479.46
2019-04-06T04:20:49.002Z,472.40
2019-04-06T04:21:48.986Z,481.59
2019-04-06T04:22:48.994Z,477.63
2019-04-06T04:23:48.988Z,478.30
2019-04-06T04:24:48.961Z,474.30
2019-04-06T04:25:50.073Z,474.85
2019-04-06T04:26:48.926Z,480.39
2019-04-06T04:27:48.918Z,484.30
2019-04-06T04:28:49.816Z,479.27
2019-04-06T04:29:48.899Z,477.62
2019-04-06T04:30:48.882Z,472.49
2019-04-06T04:31:49.132Z,475.23
2019-04-06T04:32:48.861Z,473.63
2019-04-06T04:33:49.078Z,475.71
2019-04-06T04:34:48.877Z,473.49
2019-04-06T04:35:48.850Z,476.62
2019-04-06T04:36:48.921Z,478.70
2019-04-06T04:37:58.246Z,474.53
2019-04-06T04:38:48.772Z,473.31
2019-04-06T04:39:48.945Z,480.03
2019-04-06T04:40:48.920Z,488.93
2019-04-06T04:41:48.761Z,479.04
2019-04-06T04:42:48.884Z,484.94
2019-04-06T04:43:49.034Z,472.54
2019-04-06T04:44:48.700Z,482.81
2019-04-06T04:45:48.839Z,474.35
2019-04-06T04:46:48.720Z,483.64
2019-04-06T04:47:50.187Z,479.71
2019-04-06T04:48:48.669Z,476.68
2019-04-06T04:49:48.678Z,484.33
2019-04-06T04:50:48.893Z,474.40
2019-04-06T04:51:48.636Z,476.24
2019-04-06T04:52:48.645Z,478.01
2019-04-06T04:53:48.615Z,487.57
2019-04-06T04:54:48.618Z,481.62
2019-04-06T04:55:48.608Z,484.08
2019-04-06T04:56:48.581Z,483.29
2019-04-06T04:57:49.218Z,488.04
2019-04-06T04:58:48.892Z,476.35
2019-04-06T04:59:51.257Z,478.08
2019-04-06T05:00:48.772Z,475.70
2019-04-06T05:01:48.540Z,490.64
2019-04-06T05:02:48.510Z,490.04
2019-04-06T05:03:48.684Z,475.41
2019-04-06T05:04:48.508Z,474.78
2019-04-06T05:05:48.501Z,479.29
2019-04-06T05:06:48.496Z,476.86
2019-04-06T05:07:48.457Z,478.51
2019-04-06T05:08:48.449Z,475.29
2019-04-06T05:09:48.443Z,482.12
2019-04-06T05:10:48.426Z,473.65
2019-04-06T05:11:49.106Z,479.06
2019-04-06T05:12:48.468Z,477.36
2019-04-06T05:13:48.408Z,477.41
2019-04-06T05:14:48.416Z,483.87
2019-04-06T05:15:48.390Z,485.63
2019-04-06T05:16:48.407Z,487.03
2019-04-06T05:17:48.389Z,474.36
2019-04-06T05:18:48.358Z,483.89
2019-04-06T05:19:48.397Z,479.94
2019-04-06T05:20:48.333Z,475.86
2019-04-06T05:21:48.484Z,479.91
2019-04-06T05:22:48.317Z,478.49
2019-04-06T05:23:48.300Z,481.65
2019-04-06T05:24:48.280Z,479.30
2019-04-06T05:25:48.292Z,485.12
2019-04-06T05:26:48.267Z,485.12
2019-04-06T05:27:52.619Z,473.57
2019-04-06T05:28:48.250Z,480.46
2019-04-06T05:29:48.257Z,483.67
2019-04-06T05:30:48.218Z,475.16
2019-04-06T05:31:48.252Z,478.76
2019-04-06T05:32:48.291Z,471.90
2019-04-06T05:33:48.197Z,475.52
2019-04-06T05:34:48.173Z,477.10
2019-04-06T05:35:48.171Z,483.43
2019-04-06T05:36:48.255Z,474.75
2019-04-06T05:37:48.158Z,478.44
2019-04-06T05:38:48.159Z,479.33
2019-04-06T05:39:48.145Z,474.83
2019-04-06T05:40:48.167Z,476.11
2019-04-06T05:41:57.191Z,479.30
2019-04-06T05:42:48.085Z,481.49
2019-04-06T05:43:48.095Z,474.32
2019-04-06T05:44:48.158Z,484.94
2019-04-06T05:45:48.059Z,475.48
2019-04-06T05:46:57.217Z,494.24
2019-04-06T05:47:57.258Z,482.12
2019-04-06T05:48:56.790Z,479.54
2019-04-06T05:49:57.325Z,475.06
2019-04-06T05:50:57.368Z,474.53
2019-04-06T05:51:47.985Z,478.86
2019-04-06T05:52:48.167Z,484.32
2019-04-06T05:53:47.977Z,476.61
2019-04-06T05:54:47.981Z,479.80
2019-04-06T05:55:48.019Z,475.57
2019-04-06T05:56:47.943Z,473.65
2019-04-06T05:57:47.926Z,471.26
2019-04-06T05:58:47.920Z,470.85
2019-04-06T05:59:57.063Z,475.55
2019-04-06T06:00:47.933Z,471.29
2019-04-06T06:01:48.925Z,474.90
2019-04-06T06:02:47.875Z,479.64
2019-04-06T06:03:47.860Z,474.63
2019-04-06T06:04:47.848Z,474.35
2019-04-06T06:05:49.564Z,476.15
2019-04-06T06:06:47.855Z,477.99
2019-04-06T06:07:48.683Z,482.86
2019-04-06T06:08:49.909Z,480.17
2019-04-06T06:09:48.237Z,473.87
2019-04-06T06:10:47.841Z,466.92
2019-04-06T06:11:48.293Z,479.72
2019-04-06T06:12:48.737Z,479.93
2019-04-06T06:13:48.948Z,477.42
2019-04-06T06:14:51.857Z,478.31
2019-04-06T06:15:47.746Z,473.92
2019-04-06T06:16:47.859Z,472.69
2019-04-06T06:17:47.840Z,476.90
2019-04-06T06:18:48.166Z,475.38
2019-04-06T06:19:47.736Z,473.83
2019-04-06T06:20:48.986Z,471.62
2019-04-06T06:21:50.314Z,472.73
2019-04-06T06:22:47.899Z,472.53
2019-04-06T06:23:47.671Z,485.57
2019-04-06T06:24:47.668Z,477.22
2019-04-06T06:25:47.655Z,482.63
2019-04-06T06:26:52.088Z,477.95
2019-04-06T06:27:48.089Z,473.81
2019-04-06T06:28:50.725Z,478.36
2019-04-06T06:29:47.730Z,479.62
2019-04-06T06:30:47.611Z,479.49
2019-04-06T06:31:47.573Z,483.42
2019-04-06T06:32:47.567Z,476.51
2019-04-06T06:33:47.765Z,475.56
2019-04-06T06:34:47.537Z,480.18
2019-04-06T06:35:47.528Z,475.57
2019-04-06T06:36:47.670Z,480.84
2019-04-06T06:37:47.603Z,479.78
2019-04-06T06:38:48.010Z,480.92
2019-04-06T06:39:47.487Z,477.85
2019-04-06T06:40:47.982Z,472.62
2019-04-06T06:41:58.754Z,470.32
2019-04-06T06:42:48.712Z,479.96
2019-04-06T06:43:48.514Z,477.13
2019-04-06T06:44:49.193Z,476.10
2019-04-06T06:45:50.565Z,474.81
2019-04-06T06:46:55.641Z,473.63
2019-04-06T06:47:50.285Z,474.90
2019-04-06T06:48:51.032Z,475.78
2019-04-06T06:49:49.602Z,477.16
2019-04-06T06:50:47.552Z,476.50
2019-04-06T06:51:48.803Z,474.62
2019-04-06T06:52:48.381Z,471.64
2019-04-06T06:53:48.333Z,481.92
2019-04-06T06:54:47.512Z,481.50
2019-04-06T06:55:47.928Z,477.24
2019-04-06T06:56:47.305Z,479.30
2019-04-06T06:57:47.308Z,477.75
2019-04-06T06:58:47.345Z,476.63
2019-04-06T06:59:47.318Z,481.42
2019-04-06T07:00:47.356Z,479.10
2019-04-06T07:01:47.255Z,476.41
2019-04-06T07:02:47.266Z,477.33
2019-04-06T07:03:47.286Z,470.41
2019-04-06T07:04:47.252Z,475.88
2019-04-06T07:05:47.221Z,478.41
2019-04-06T07:06:47.207Z,478.52
2019-04-06T07:07:47.180Z,472.75
2019-04-06T07:08:47.165Z,475.05
2019-04-06T07:09:47.167Z,475.59
2019-04-06T07:10:47.172Z,472.37
2019-04-06T07:11:47.911Z,475.39
2019-04-06T07:12:47.125Z,475.44
2019-04-06T07:13:47.157Z,475.80
2019-04-06T07:14:47.132Z,475.62
2019-04-06T07:15:47.150Z,472.62
2019-04-06T07:16:47.888Z,473.87
2019-04-06T07:17:47.101Z,473.57
2019-04-06T07:18:47.290Z,481.40
2019-04-06T07:19:47.221Z,474.66
2019-04-06T07:20:47.043Z,479.07
2019-04-06T07:21:47.046Z,473.55
2019-04-06T07:22:47.016Z,475.61
2019-04-06T07:23:47.366Z,472.80
2019-04-06T07:24:47.044Z,483.05
2019-04-06T07:25:56.633Z,479.59
2019-04-06T07:26:47.980Z,478.07
2019-04-06T07:27:46.971Z,476.13
2019-04-06T07:28:46.967Z,479.45
2019-04-06T07:29:46.949Z,474.75
2019-04-06T07:30:46.968Z,480.26
2019-04-06T07:31:46.941Z,482.14
2019-04-06T07:32:46.914Z,472.91
2019-04-06T07:33:46.903Z,475.33
2019-04-06T07:34:47.176Z,479.44
2019-04-06T07:35:47.062Z,479.35
2019-04-06T07:36:46.920Z,479.46
2019-04-06T07:37:46.865Z,477.20
2019-04-06T07:38:48.326Z,477.03
2019-04-06T07:39:46.874Z,478.43
2019-04-06T07:40:46.839Z,476.92
2019-04-06T07:41:46.870Z,475.99
2019-04-06T07:42:46.819Z,475.98
2019-04-06T07:43:47.904Z,476.53
2019-04-06T07:44:46.789Z,476.96
2019-04-06T07:45:46.790Z,482.50
2019-04-06T07:46:46.811Z,480.63
2019-04-06T07:47:47.005Z,476.29
2019-04-06T07:48:48.309Z,480.26
2019-04-06T07:49:46.825Z,480.86
2019-04-06T07:50:48.999Z,478.02
2019-04-06T07:51:50.221Z,478.77
2019-04-06T07:52:50.906Z,478.24
2019-04-06T07:53:47.885Z,476.62
2019-04-06T07:54:47.622Z,473.59
2019-04-06T07:55:46.685Z,476.69
2019-04-06T07:56:46.663Z,478.90
2019-04-06T07:57:46.655Z,481.09
2019-04-06T07:58:49.442Z,476.48
2019-04-06T07:59:46.796Z,481.95
2019-04-06T08:00:46.610Z,479.04
2019-04-06T08:01:48.549Z,481.31
2019-04-06T08:02:46.642Z,477.30
2019-04-06T08:03:46.578Z,476.99
2019-04-06T08:04:46.594Z,475.87
2019-04-06T08:05:46.721Z,476.00
2019-04-06T08:06:46.602Z,475.23
2019-04-06T08:07:46.628Z,480.62
2019-04-06T08:08:47.486Z,474.66
2019-04-06T08:09:46.610Z,478.14
2019-04-06T08:10:46.531Z,485.31
2019-04-06T08:11:46.580Z,478.48
2019-04-06T08:12:46.504Z,479.45
2019-04-06T08:13:46.473Z,481.12
2019-04-06T08:14:46.959Z,476.78
2019-04-06T08:15:46.451Z,475.32
2019-04-06T08:16:46.568Z,472.99
2019-04-06T08:17:46.443Z,480.41
2019-04-06T08:18:46.417Z,474.19
2019-04-06T08:19:46.420Z,482.15
2019-04-06T08:20:46.401Z,480.36
2019-04-06T08:21:46.601Z,480.19
2019-04-06T08:22:46.406Z,480.90
2019-04-06T08:23:46.381Z,477.54
2019-04-06T08:24:46.359Z,493.49
2019-04-06T08:25:46.366Z,484.93
2019-04-06T08:26:46.624Z,476.81
2019-04-06T08:27:46.337Z,475.95
2019-04-06T08:28:46.341Z,478.71
2019-04-06T08:29:46.358Z,488.27
2019-04-06T08:30:47.078Z,479.79
2019-04-06T08:31:46.300Z,487.98
2019-04-06T08:32:46.424Z,484.36
2019-04-06T08:33:46.307Z,474.72
2019-04-06T08:34:46.287Z,482.78
2019-04-06T08:35:46.312Z,481.15
2019-04-06T08:36:46.240Z,479.30
2019-04-06T08:37:46.286Z,486.64
2019-04-06T08:38:46.241Z,480.25
2019-04-06T08:39:46.280Z,485.51
2019-04-06T08:40:46.398Z,481.37
2019-04-06T08:41:46.195Z,475.07
2019-04-06T08:42:46.352Z,477.51
2019-04-06T08:43:46.172Z,481.57
2019-04-06T08:44:46.136Z,483.29
2019-04-06T08:45:46.171Z,483.60
2019-04-06T08:46:46.176Z,480.28
2019-04-06T08:47:46.116Z,490.15
2019-04-06T08:48:46.123Z,483.95
2019-04-06T08:52:08.213Z,523.96
2019-04-06T08:53:08.196Z,479.81
2019-04-06T08:54:08.197Z,476.66
2019-04-06T08:55:08.249Z,487.84
2019-04-06T08:56:08.150Z,481.84
2019-04-06T08:57:08.320Z,482.26
2019-04-06T08:58:08.138Z,481.95
2019-04-06T08:59:11.970Z,480.73
2019-04-06T09:00:09.199Z,485.14
2019-04-06T09:01:08.108Z,490.77
2019-04-06T09:02:08.087Z,479.17
2019-04-06T09:03:08.275Z,479.05
2019-04-06T09:04:08.067Z,489.86
2019-04-06T09:05:08.063Z,484.07
2019-04-06T09:06:08.056Z,490.41
2019-04-06T09:07:08.075Z,479.25
2019-04-06T09:08:08.035Z,480.76
2019-04-06T09:09:08.026Z,488.34
2019-04-06T09:10:08.003Z,471.35
2019-04-06T09:11:08.015Z,485.91
2019-04-06T09:12:07.975Z,484.31
2019-04-06T09:13:15.608Z,481.38
2019-04-06T09:14:11.242Z,480.66
2019-04-06T09:15:09.134Z,478.61
2019-04-06T09:16:08.488Z,480.52
2019-04-06T09:17:15.491Z,476.19
2019-04-06T09:18:08.334Z,491.13
2019-04-06T09:19:08.635Z,485.00
2019-04-06T09:20:07.919Z,491.31
2019-04-06T09:21:09.018Z,485.01
2019-04-06T09:22:07.888Z,480.65
2019-04-06T09:23:07.901Z,495.38
2019-04-06T09:24:07.901Z,476.01
2019-04-06T09:25:08.575Z,473.78
2019-04-06T09:26:07.841Z,494.20
2019-04-06T09:27:07.866Z,491.56
2019-04-06T09:28:08.241Z,497.43
2019-04-06T09:29:08.581Z,485.85
2019-04-06T09:30:08.811Z,475.77
2019-04-06T09:31:07.792Z,489.84
2019-04-06T09:32:07.804Z,497.86
2019-04-06T09:33:10.789Z,491.63
2019-04-06T09:34:07.864Z,469.50
2019-04-06T09:35:15.421Z,483.34
2019-04-06T09:36:07.771Z,482.29
2019-04-06T09:37:07.728Z,489.70
2019-04-06T09:38:09.013Z,506.18
2019-04-06T09:39:07.749Z,490.92
2019-04-06T09:40:07.743Z,492.35
2019-04-06T09:41:07.700Z,483.21
2019-04-06T09:42:09.091Z,499.35
2019-04-06T09:43:07.675Z,489.43
2019-04-06T09:44:07.668Z,484.26
2019-04-06T09:45:07.664Z,488.31
2019-04-06T09:46:08.296Z,486.47
2019-04-06T09:47:07.632Z,486.64
2019-04-06T09:48:07.916Z,480.45
2019-04-06T09:49:07.600Z,475.23
2019-04-06T09:50:07.602Z,489.85
2019-04-06T09:51:07.588Z,481.96
2019-04-06T09:52:07.603Z,485.81
2019-04-06T09:53:07.556Z,500.14
2019-04-06T09:54:07.751Z,505.96
2019-04-06T09:55:07.546Z,491.84
2019-04-06T09:56:07.541Z,492.12
2019-04-06T09:57:07.562Z,488.19
2019-04-06T09:58:07.785Z,490.42
2019-04-06T09:59:08.026Z,491.58
2019-04-06T10:00:07.489Z,495.56
2019-04-06T10:01:07.492Z,507.90
2019-04-06T10:02:07.484Z,492.19
2019-04-06T10:03:07.453Z,491.53
2019-04-06T10:04:07.563Z,479.64
2019-04-06T10:05:07.434Z,473.70
2019-04-06T10:06:07.419Z,498.76
2019-04-06T10:07:07.457Z,499.59
2019-04-06T10:08:07.675Z,484.59
2019-04-06T10:09:07.547Z,500.80
2019-04-06T10:10:07.380Z,490.87
2019-04-06T10:11:07.354Z,493.59
2019-04-06T10:12:07.592Z,502.74
2019-04-06T10:13:07.337Z,487.63
2019-04-06T10:14:07.590Z,482.69
2019-04-06T10:15:07.327Z,505.86
2019-04-06T10:16:07.302Z,479.47
2019-04-06T10:17:07.294Z,501.13
2019-04-06T10:18:07.286Z,485.80
2019-04-06T10:19:07.344Z,503.32
2019-04-06T10:20:07.378Z,466.22
2019-04-06T10:21:07.298Z,503.63
2019-04-06T10:22:07.263Z,513.82
2019-04-06T10:23:07.222Z,497.83
2019-04-06T10:24:07.247Z,488.27
2019-04-06T10:25:07.679Z,505.26
2019-04-06T10:26:07.201Z,498.75
2019-04-06T10:27:07.418Z,481.57
2019-04-06T10:28:07.504Z,507.18
2019-04-06T10:29:07.395Z,504.24
2019-04-06T10:30:07.162Z,504.17
2019-04-06T10:31:07.161Z,500.65
2019-04-06T10:32:07.141Z,491.60
2019-04-06T10:33:07.132Z,509.11
2019-04-06T10:34:07.110Z,475.93
2019-04-06T10:35:07.095Z,489.19
2019-04-06T10:36:07.091Z,494.16
2019-04-06T10:37:07.080Z,486.93
2019-04-06T10:38:07.062Z,511.24
2019-04-06T10:39:07.049Z,479.33
2019-04-06T10:40:07.087Z,519.78
2019-04-06T10:41:07.089Z,508.61
2019-04-06T10:42:07.046Z,511.34
2019-04-06T10:43:07.030Z,522.17
2019-04-06T10:44:07.011Z,480.74
2019-04-06T10:45:06.994Z,502.28
2019-04-06T10:46:06.963Z,508.76
2019-04-06T10:47:06.964Z,497.08
2019-04-06T10:48:06.995Z,481.43
2019-04-06T10:49:07.078Z,497.58
2019-04-06T10:50:07.102Z,490.61
2019-04-06T10:51:07.352Z,510.75
2019-04-06T10:52:06.908Z,499.23
2019-04-06T10:53:06.918Z,489.42
2019-04-06T10:54:06.910Z,490.98
2019-04-06T10:55:07.035Z,489.69
2019-04-06T10:56:06.917Z,511.87
2019-04-06T10:57:06.860Z,492.42
2019-04-06T10:58:07.179Z,497.20
2019-04-06T10:59:06.846Z,523.96
2019-04-06T11:00:06.833Z,476.31
2019-04-06T11:01:06.869Z,511.65
2019-04-06T11:02:06.806Z,503.29
2019-04-06T11:03:06.857Z,485.12
2019-04-06T11:04:06.783Z,478.90
2019-04-06T11:05:06.791Z,502.60
2019-04-06T11:06:06.938Z,484.45
2019-04-06T11:07:11.813Z,514.51
2019-04-06T11:08:09.351Z,485.60
2019-04-06T11:09:07.902Z,487.13
2019-04-06T11:10:12.418Z,486.27
2019-04-06T11:11:08.022Z,508.32
2019-04-06T11:12:11.410Z,482.04
2019-04-06T11:13:06.730Z,473.04
2019-04-06T11:14:06.781Z,486.28
2019-04-06T11:15:07.102Z,494.44
2019-04-06T11:16:06.702Z,488.23
2019-04-06T11:17:06.749Z,510.94
2019-04-06T11:18:06.664Z,501.98
2019-04-06T11:19:06.745Z,508.48
2019-04-06T11:20:06.628Z,477.78
2019-04-06T11:21:06.611Z,484.54
2019-04-06T11:22:06.597Z,509.17
2019-04-06T11:23:06.596Z,517.34
2019-04-06T11:24:06.574Z,515.46
2019-04-06T11:25:06.564Z,511.19
2019-04-06T11:26:06.567Z,493.56
2019-04-06T11:27:06.553Z,503.56
2019-04-06T11:28:06.739Z,509.47
2019-04-06T11:29:06.521Z,485.75
2019-04-06T11:30:12.829Z,483.17
2019-04-06T11:31:07.646Z,513.75
2019-04-06T11:32:07.054Z,525.02
2019-04-06T11:33:06.479Z,489.86
2019-04-06T11:34:06.812Z,486.23
2019-04-06T11:35:06.905Z,493.65
2019-04-06T11:36:06.652Z,453.86
2019-04-06T11:37:06.487Z,528.83
2019-04-06T11:38:06.719Z,508.69
2019-04-06T11:39:06.436Z,500.76
2019-04-06T11:40:06.526Z,506.57
2019-04-06T11:41:06.692Z,496.61
2019-04-06T11:42:06.467Z,488.85
2019-04-06T11:43:06.424Z,489.80
2019-04-06T11:44:06.409Z,505.66
2019-04-06T11:45:06.470Z,510.82
2019-04-06T11:46:06.389Z,511.51
2019-04-06T11:47:06.391Z,508.53
2019-04-06T11:48:06.327Z,500.29
2019-04-06T11:49:06.477Z,507.45
2019-04-06T11:50:06.360Z,507.13
2019-04-06T11:51:06.276Z,523.33
2019-04-06T11:52:06.580Z,526.85
2019-04-06T11:53:06.554Z,490.44
2019-04-06T11:54:06.302Z,507.61
2019-04-06T11:55:06.256Z,501.59
2019-04-06T11:56:06.228Z,488.96
2019-04-06T11:57:06.300Z,498.93
2019-04-06T11:58:06.226Z,476.66
2019-04-06T11:59:06.228Z,502.98
2019-04-06T12:00:26.114Z,471.68
2019-04-06T12:01:07.167Z,501.92
2019-04-06T12:02:06.168Z,512.27
2019-04-06T12:03:06.149Z,504.73
2019-04-06T12:04:06.177Z,528.96
2019-04-06T12:05:06.429Z,522.59
2019-04-06T12:06:06.117Z,516.43
2019-04-06T12:07:06.123Z,506.90
2019-04-06T12:08:06.094Z,512.63
2019-04-06T12:09:06.099Z,508.70
2019-04-06T12:10:06.072Z,498.96
2019-04-06T12:11:06.283Z,492.74
2019-04-06T12:12:06.096Z,488.15
2019-04-06T12:13:06.035Z,509.23
2019-04-06T12:14:06.230Z,503.32
2019-04-06T12:15:06.034Z,511.12
2019-04-06T12:16:06.017Z,508.85
2019-04-06T12:17:05.991Z,521.75
2019-04-06T12:18:05.983Z,515.54
2019-04-06T12:19:06.119Z,496.64
2019-04-06T12:20:06.355Z,503.04
2019-04-06T12:21:05.968Z,528.24
2019-04-06T12:22:06.011Z,486.08
2019-04-06T12:23:05.937Z,530.05
2019-04-06T12:24:05.981Z,522.53
2019-04-06T12:25:05.921Z,508.82
2019-04-06T12:26:05.925Z,517.28
2019-04-06T12:27:06.251Z,450.66
2019-04-06T12:28:05.893Z,485.34
2019-04-06T12:29:05.904Z,509.82
2019-04-06T12:30:05.853Z,480.12
2019-04-06T12:31:05.931Z,486.90